createdAt,value
2023-05-20T00:01:04.464Z,9.66
2023-05-20T00:03:35.024Z,9.65
2023-05-20T00:06:04.610Z,9.69
2023-05-20T00:08:33.794Z,9.71
2023-05-20T00:11:02.922Z,9.68
2023-05-20T00:13:32.063Z,9.68
2023-05-20T00:16:01.276Z,9.66
2023-05-20T00:18:30.676Z,9.70
2023-05-20T00:21:01.171Z,9.60
2023-05-20T00:23:30.305Z,9.65
2023-05-20T00:26:00.833Z,9.61
2023-05-20T00:28:30.737Z,9.57
2023-05-20T00:30:59.883Z,9.59
2023-05-20T00:33:28.959Z,9.55
2023-05-20T00:35:58.045Z,9.55
2023-05-20T00:38:28.564Z,9.49
2023-05-20T00:40:57.738Z,9.54
2023-05-20T00:43:27.496Z,9.46
2023-05-20T00:45:56.922Z,9.55
2023-05-20T00:48:26.172Z,9.45
2023-05-20T00:50:55.426Z,9.48
2023-05-20T00:53:25.252Z,9.42
2023-05-20T00:55:56.140Z,9.35
2023-05-20T00:58:25.442Z,9.34
2023-05-20T01:00:55.168Z,9.35
2023-05-20T01:03:24.455Z,9.29
2023-05-20T01:05:53.740Z,9.26
2023-05-20T01:08:23.661Z,9.28
2023-05-20T01:10:59.241Z,9.30
2023-05-20T01:13:34.933Z,9.20
2023-05-20T01:16:05.677Z,9.20
2023-05-20T01:18:35.842Z,9.13
2023-05-20T01:21:09.141Z,9.19
2023-05-20T01:23:42.188Z,9.16
2023-05-20T01:26:13.610Z,9.16
2023-05-20T01:28:44.623Z,9.12
2023-05-20T01:31:19.614Z,9.03
2023-05-20T01:33:53.112Z,9.06
2023-05-20T01:36:23.764Z,8.99
2023-05-20T01:38:55.891Z,9.00
2023-05-20T01:41:27.990Z,8.93
2023-05-20T01:43:58.049Z,8.88
2023-05-20T01:46:27.374Z,8.86
2023-05-20T01:48:56.524Z,8.86
2023-05-20T01:51:25.837Z,8.84
2023-05-20T01:53:56.282Z,8.81
2023-05-20T01:56:25.786Z,8.79
2023-05-20T01:58:54.905Z,8.81
2023-05-20T02:01:24.236Z,8.78
2023-05-20T02:03:53.383Z,8.75
2023-05-20T02:06:22.523Z,8.73
2023-05-20T02:08:51.598Z,8.73
2023-05-20T02:11:22.749Z,8.71
2023-05-20T02:13:52.351Z,8.67
2023-05-20T02:16:21.527Z,8.65
2023-05-20T02:18:53.022Z,8.58
2023-05-20T02:21:22.240Z,8.60
2023-05-20T02:23:51.343Z,8.58
2023-05-20T02:26:22.658Z,8.51
2023-05-20T02:28:51.832Z,8.51
2023-05-20T02:31:23.856Z,8.43
2023-05-20T02:33:53.079Z,8.48
2023-05-20T02:36:22.303Z,8.42
2023-05-20T02:38:51.465Z,8.41
2023-05-20T02:41:22.088Z,8.41
2023-05-20T02:43:51.183Z,8.39
2023-05-20T02:46:20.371Z,8.39
2023-05-20T02:48:49.505Z,8.29
2023-05-20T02:51:18.675Z,8.33
2023-05-20T02:53:48.328Z,8.35
2023-05-20T02:56:21.499Z,8.31
2023-05-20T02:58:52.241Z,8.37
2023-05-20T03:01:22.025Z,8.27
2023-05-20T03:03:51.320Z,8.27
2023-05-20T03:06:20.424Z,8.22
2023-05-20T03:08:49.569Z,8.22
2023-05-20T03:11:18.681Z,8.24
2023-05-20T03:13:47.804Z,8.30
2023-05-20T03:16:20.460Z,8.27
2023-05-20T03:18:49.724Z,8.30
2023-05-20T03:21:19.474Z,8.30
2023-05-20T03:23:48.648Z,8.26
2023-05-20T03:26:17.897Z,8.31
2023-05-20T03:28:47.272Z,8.33
2023-05-20T03:31:17.599Z,8.41
2023-05-20T03:33:49.025Z,8.41
2023-05-20T03:36:18.298Z,8.43
2023-05-20T03:38:47.508Z,8.46
2023-05-20T03:41:16.611Z,8.46
2023-05-20T03:43:45.757Z,8.45
2023-05-20T03:46:14.950Z,8.47
2023-05-20T03:48:44.112Z,8.51
2023-05-20T03:51:15.068Z,8.61
2023-05-20T03:53:44.250Z,8.64
2023-05-20T03:56:13.577Z,8.66
2023-05-20T03:58:44.786Z,8.69
2023-05-20T04:01:14.349Z,8.76
2023-05-20T04:03:43.695Z,8.77
2023-05-20T04:06:16.060Z,8.85
2023-05-20T04:08:45.867Z,8.89
2023-05-20T04:11:15.007Z,8.93
2023-05-20T04:13:44.134Z,8.94
2023-05-20T04:16:13.277Z,9.06
2023-05-20T04:18:42.434Z,8.98
2023-05-20T04:21:11.737Z,8.96
2023-05-20T04:23:42.305Z,9.15
2023-05-20T04:26:12.776Z,9.15
2023-05-20T04:28:41.974Z,9.20
2023-05-20T04:31:11.446Z,9.26
2023-05-20T04:33:41.166Z,9.19
2023-05-20T04:36:15.431Z,9.32
2023-05-20T04:38:47.088Z,9.32
2023-05-20T04:41:16.937Z,9.38
2023-05-20T04:43:46.815Z,9.49
2023-05-20T04:46:16.473Z,9.65
2023-05-20T04:48:45.618Z,9.76
2023-05-20T04:51:16.196Z,9.78
2023-05-20T04:53:47.090Z,10.09
2023-05-20T04:56:16.167Z,10.42
2023-05-20T04:58:45.256Z,10.51
2023-05-20T05:01:14.497Z,10.39
2023-05-20T05:03:44.672Z,10.63
2023-05-20T05:06:13.910Z,10.91
2023-05-20T05:08:44.145Z,11.31
2023-05-20T05:11:14.687Z,11.51
2023-05-20T05:13:43.812Z,11.63
2023-05-20T05:16:14.105Z,11.72
2023-05-20T05:18:43.242Z,12.24
2023-05-20T05:21:12.861Z,12.18
2023-05-20T05:23:43.698Z,12.44
2023-05-20T05:26:14.827Z,12.32
2023-05-20T05:28:44.206Z,12.69
2023-05-20T05:31:13.369Z,12.31
2023-05-20T05:33:42.568Z,12.71
2023-05-20T05:36:11.782Z,12.39
2023-05-20T05:38:41.142Z,12.89
2023-05-20T05:41:10.661Z,12.85
2023-05-20T05:43:41.387Z,13.06
2023-05-20T05:46:10.664Z,13.44
2023-05-20T05:48:40.142Z,13.46
2023-05-20T05:51:09.360Z,13.57
2023-05-20T05:53:39.203Z,13.36
2023-05-20T05:56:08.771Z,13.01
2023-05-20T05:58:38.051Z,13.15
2023-05-20T06:01:10.317Z,13.08
2023-05-20T06:03:39.662Z,12.94
2023-05-20T06:06:09.039Z,13.09
2023-05-20T06:08:38.190Z,13.51
2023-05-20T06:11:08.595Z,13.50
2023-05-20T06:13:38.131Z,13.34
2023-05-20T06:16:09.041Z,13.45
2023-05-20T06:18:38.207Z,13.85
2023-05-20T06:21:08.168Z,13.91
2023-05-20T06:23:37.370Z,14.17
2023-05-20T06:26:09.176Z,13.85
2023-05-20T06:28:39.718Z,14.08
2023-05-20T06:31:10.371Z,14.18
2023-05-20T06:33:41.143Z,14.30
2023-05-20T06:36:13.358Z,14.46
2023-05-20T06:38:43.165Z,14.33
2023-05-20T06:41:14.615Z,13.92
2023-05-20T06:43:43.827Z,14.29
2023-05-20T06:46:33.476Z,14.65
2023-05-20T06:49:07.111Z,14.93
2023-05-20T06:51:36.980Z,14.78
2023-05-20T06:54:06.485Z,14.63
2023-05-20T06:56:35.723Z,15.32
2023-05-20T06:59:04.893Z,15.75
2023-05-20T07:01:37.649Z,15.80
2023-05-20T07:04:07.478Z,16.31
2023-05-20T07:06:37.151Z,15.37
2023-05-20T07:09:06.485Z,15.39
2023-05-20T07:11:35.721Z,15.80
2023-05-20T07:14:05.234Z,15.78
2023-05-20T07:16:37.428Z,15.98
2023-05-20T07:19:06.712Z,15.87
2023-05-20T07:21:36.704Z,15.57
2023-05-20T07:24:24.499Z,15.97
2023-05-20T07:26:53.738Z,16.14
2023-05-20T07:29:23.008Z,16.50
2023-05-20T07:31:53.677Z,16.03
2023-05-20T07:34:22.804Z,15.97
2023-05-20T07:36:53.288Z,16.11
2023-05-20T07:39:22.445Z,16.02
2023-05-20T07:41:52.011Z,16.48
2023-05-20T07:44:22.143Z,15.78
2023-05-20T07:46:54.365Z,16.63
2023-05-20T07:49:23.504Z,16.56
2023-05-20T07:51:52.830Z,16.53
2023-05-20T07:54:21.994Z,17.41
2023-05-20T07:56:53.784Z,17.16
2023-05-20T07:59:23.207Z,16.69
2023-05-20T08:01:54.444Z,16.59
2023-05-20T08:04:24.082Z,17.72
2023-05-20T08:06:55.156Z,18.11
2023-05-20T08:09:35.330Z,16.83
2023-05-20T08:12:04.718Z,16.89
2023-05-20T08:14:33.861Z,17.56
2023-05-20T08:17:04.477Z,18.79
2023-05-20T08:19:33.828Z,17.82
2023-05-20T08:22:03.481Z,17.59
2023-05-20T08:24:32.858Z,16.88
2023-05-20T08:27:01.961Z,17.00
2023-05-20T08:29:31.126Z,17.50
2023-05-20T08:32:01.408Z,16.82
2023-05-20T08:34:32.571Z,17.64
2023-05-20T08:37:01.682Z,17.54
2023-05-20T08:39:30.836Z,17.00
2023-05-20T08:42:00.268Z,17.01
2023-05-20T08:44:30.405Z,17.21
2023-05-20T08:47:00.281Z,17.58
2023-05-20T08:49:31.013Z,17.65
2023-05-20T08:52:01.311Z,17.39
2023-05-20T08:54:46.519Z,17.93
2023-05-20T08:57:15.725Z,17.84
2023-05-20T08:59:46.826Z,17.80
2023-05-20T09:02:16.642Z,17.24
2023-05-20T09:04:47.291Z,17.68
2023-05-20T09:07:16.430Z,16.76
2023-05-20T09:09:45.576Z,16.76
2023-05-20T09:12:15.122Z,17.25
2023-05-20T09:14:45.184Z,17.54
2023-05-20T09:17:14.955Z,17.18
2023-05-20T09:19:44.114Z,17.36
2023-05-20T09:22:14.590Z,16.70
2023-05-20T09:24:43.664Z,16.60
2023-05-20T09:27:13.500Z,16.33
2023-05-20T09:29:43.636Z,17.74
2023-05-20T09:32:13.487Z,17.29
2023-05-20T09:34:42.986Z,16.65
2023-05-20T09:37:15.269Z,17.67
2023-05-20T09:39:53.143Z,18.22
2023-05-20T09:42:26.890Z,17.81
2023-05-20T09:44:57.971Z,17.40
2023-05-20T09:47:28.090Z,16.72
2023-05-20T09:49:57.316Z,17.40
2023-05-20T09:52:28.914Z,16.66
2023-05-20T09:55:00.007Z,16.60
2023-05-20T09:57:31.453Z,16.64
2023-05-20T10:00:00.695Z,16.79
2023-05-20T10:02:30.342Z,16.64
2023-05-20T10:05:04.013Z,16.94
2023-05-20T10:08:09.815Z,16.71
2023-05-20T10:10:47.738Z,16.45
2023-05-20T10:13:29.222Z,15.78
2023-05-20T10:16:11.314Z,16.19
2023-05-20T10:18:52.951Z,15.89
2023-05-20T10:21:25.374Z,15.84
2023-05-20T10:23:55.951Z,16.19
2023-05-20T10:26:35.669Z,16.09
2023-05-20T10:29:15.666Z,15.79
2023-05-20T10:31:51.219Z,15.66
2023-05-20T10:34:21.743Z,15.11
2023-05-20T10:37:00.239Z,15.53
2023-05-20T10:39:34.072Z,15.97
2023-05-20T10:42:10.018Z,16.19
2023-05-20T10:44:45.900Z,17.07
2023-05-20T10:49:47.893Z,17.83
2023-05-20T10:52:19.137Z,18.43
2023-05-20T10:54:56.617Z,17.26
2023-05-20T10:57:27.650Z,17.13
2023-05-20T10:59:57.490Z,17.39
2023-05-20T11:02:28.434Z,16.89
2023-05-20T11:04:59.118Z,16.73
2023-05-20T11:07:29.111Z,17.04
2023-05-20T11:09:59.960Z,16.53
2023-05-20T11:12:30.108Z,16.72
2023-05-20T11:14:59.252Z,16.16
2023-05-20T11:17:28.376Z,15.67
2023-05-20T11:20:00.786Z,15.78
2023-05-20T11:22:29.956Z,16.09
2023-05-20T11:25:00.477Z,15.82
2023-05-20T11:27:30.101Z,16.07
2023-05-20T11:29:59.212Z,15.83
2023-05-20T11:32:28.405Z,15.73
2023-05-20T11:34:57.600Z,15.89
2023-05-20T11:37:26.896Z,16.02
2023-05-20T11:40:09.355Z,15.96
2023-05-20T11:42:38.791Z,15.79
2023-05-20T11:45:14.207Z,15.82
2023-05-20T11:47:43.360Z,15.68
2023-05-20T11:50:17.822Z,15.55
2023-05-20T11:52:46.964Z,15.71
2023-05-20T11:55:18.118Z,15.52
2023-05-20T11:57:47.268Z,15.77
2023-05-20T12:00:16.672Z,15.79
2023-05-20T12:02:46.309Z,15.76
2023-05-20T12:05:16.129Z,15.65
2023-05-20T12:07:45.591Z,15.74
2023-05-20T12:10:14.996Z,16.13
2023-05-20T12:12:46.346Z,16.12
2023-05-20T12:15:15.899Z,15.68
2023-05-20T12:17:50.761Z,15.59
2023-05-20T12:20:23.032Z,15.32
2023-05-20T12:22:52.358Z,15.45
2023-05-20T12:25:22.041Z,15.40
2023-05-20T12:27:52.573Z,15.55
2023-05-20T12:30:23.090Z,15.66
2023-05-20T12:32:52.852Z,15.73
2023-05-20T12:35:37.287Z,16.07
2023-05-20T12:38:06.764Z,15.89
2023-05-20T12:40:36.561Z,15.73
2023-05-20T12:43:07.708Z,15.66
2023-05-20T12:45:36.879Z,15.76
2023-05-20T12:48:07.234Z,15.98
2023-05-20T12:50:36.507Z,16.36
2023-05-20T12:53:05.822Z,16.27
2023-05-20T12:55:34.948Z,16.13
2023-05-20T12:58:04.064Z,15.63
2023-05-20T13:00:34.729Z,15.51
2023-05-20T13:03:04.229Z,15.67
2023-05-20T13:05:33.457Z,15.89
2023-05-20T13:08:02.575Z,15.76
2023-05-20T13:10:31.796Z,15.83
2023-05-20T13:13:01.117Z,16.05
2023-05-20T13:15:30.237Z,15.78
2023-05-20T13:18:01.829Z,15.78
2023-05-20T13:20:31.586Z,16.06
2023-05-20T13:23:00.679Z,16.10
2023-05-20T13:25:29.799Z,16.12
2023-05-20T13:27:58.942Z,15.90
2023-05-20T13:30:28.571Z,15.83
2023-05-20T13:32:57.731Z,15.75
2023-05-20T13:35:28.253Z,15.92
2023-05-20T13:37:57.388Z,16.16
2023-05-20T13:40:26.779Z,16.13
2023-05-20T13:42:55.910Z,16.45
2023-05-20T13:45:25.591Z,16.64
2023-05-20T13:47:54.699Z,16.87
2023-05-20T13:50:23.924Z,16.32
2023-05-20T13:52:54.483Z,15.96
2023-05-20T13:55:24.733Z,16.11
2023-05-20T13:57:54.363Z,16.17
2023-05-20T14:00:23.578Z,16.18
2023-05-20T14:02:53.519Z,16.36
2023-05-20T14:05:23.080Z,16.31
2023-05-20T14:07:53.579Z,16.07
2023-05-20T14:10:22.786Z,16.26
2023-05-20T14:12:53.399Z,16.13
2023-05-20T14:15:22.834Z,16.10
2023-05-20T14:17:52.077Z,16.57
2023-05-20T14:20:21.208Z,16.68
2023-05-20T14:22:50.295Z,16.25
2023-05-20T14:25:21.088Z,16.02
2023-05-20T14:27:50.398Z,16.26
2023-05-20T14:30:19.516Z,16.11
2023-05-20T14:32:48.735Z,16.14
2023-05-20T14:35:18.276Z,16.15
2023-05-20T14:37:47.513Z,16.28
2023-05-20T14:40:16.868Z,16.10
2023-05-20T14:42:47.378Z,16.31
2023-05-20T14:45:16.631Z,16.50
2023-05-20T14:47:46.028Z,16.34
2023-05-20T14:50:15.330Z,16.34
2023-05-20T14:52:44.559Z,16.40
2023-05-20T14:55:13.630Z,16.28
2023-05-20T14:57:43.004Z,16.94
2023-05-20T15:00:14.661Z,16.51
2023-05-20T15:02:43.882Z,16.70
2023-05-20T15:05:13.138Z,16.60
2023-05-20T15:07:42.576Z,16.49
2023-05-20T15:10:12.401Z,16.10
2023-05-20T15:12:41.558Z,16.02
2023-05-20T15:15:12.955Z,15.71
2023-05-20T15:17:42.284Z,16.09
2023-05-20T15:20:12.413Z,15.94
2023-05-20T15:22:43.939Z,16.02
2023-05-20T15:25:13.128Z,16.17
2023-05-20T15:27:42.888Z,16.26
2023-05-20T15:30:14.675Z,16.30
2023-05-20T15:32:43.948Z,15.72
2023-05-20T15:35:13.128Z,16.16
2023-05-20T15:37:42.464Z,15.71
2023-05-20T15:40:12.713Z,15.66
2023-05-20T15:42:42.210Z,15.85
2023-05-20T15:45:12.485Z,15.88
2023-05-20T15:47:45.460Z,15.84
2023-05-20T15:50:14.596Z,15.73
2023-05-20T15:52:43.778Z,15.75
2023-05-20T15:55:12.925Z,15.68
2023-05-20T15:57:42.072Z,15.89
2023-05-20T16:00:12.705Z,15.82
2023-05-20T16:02:43.948Z,15.77
2023-05-20T16:05:13.367Z,15.84
2023-05-20T16:07:43.388Z,15.77
2023-05-20T16:10:12.678Z,15.96
2023-05-20T16:12:41.753Z,16.21
2023-05-20T16:15:11.587Z,16.04
2023-05-20T16:17:42.467Z,16.02
2023-05-20T16:20:12.021Z,15.91
2023-05-20T16:22:41.294Z,15.81
2023-05-20T16:25:11.843Z,15.92
2023-05-20T16:27:40.980Z,15.96
2023-05-20T16:30:12.157Z,16.14
2023-05-20T16:32:42.652Z,16.15
2023-05-20T16:35:12.371Z,16.06
2023-05-20T16:37:42.618Z,16.13
2023-05-20T16:40:12.329Z,15.97
2023-05-20T16:42:42.275Z,16.24
2023-05-20T16:45:12.363Z,16.05
2023-05-20T16:47:42.984Z,15.81
2023-05-20T16:50:12.416Z,15.95
2023-05-20T16:52:41.765Z,15.89
2023-05-20T16:55:12.522Z,15.78
2023-05-20T16:57:42.753Z,15.72
2023-05-20T17:00:13.050Z,15.58
2023-05-20T17:02:43.630Z,15.54
2023-05-20T17:05:13.605Z,15.86
2023-05-20T17:07:44.568Z,15.61
2023-05-20T17:10:13.731Z,15.65
2023-05-20T17:12:42.816Z,15.68
2023-05-20T17:15:12.188Z,15.65
2023-05-20T17:17:42.747Z,15.47
2023-05-20T17:20:12.969Z,15.44
2023-05-20T17:22:42.048Z,15.30
2023-05-20T17:25:11.636Z,15.37
2023-05-20T17:27:40.759Z,15.40
2023-05-20T17:30:10.423Z,15.40
2023-05-20T17:32:40.507Z,15.44
2023-05-20T17:35:11.505Z,15.42
2023-05-20T17:37:41.393Z,15.43
2023-05-20T17:40:15.004Z,15.42
2023-05-20T17:42:44.130Z,15.44
2023-05-20T17:45:13.462Z,15.30
2023-05-20T17:47:42.691Z,15.27
2023-05-20T17:50:14.592Z,15.22
2023-05-20T17:52:43.740Z,15.09
2023-05-20T17:55:12.909Z,15.16
2023-05-20T17:57:44.780Z,15.15
2023-05-20T18:00:15.691Z,15.20
2023-05-20T18:02:48.142Z,15.04
2023-05-20T18:05:19.146Z,15.08
2023-05-20T18:07:48.791Z,15.10
2023-05-20T18:10:18.063Z,15.09
2023-05-20T18:12:47.164Z,15.13
2023-05-20T18:15:17.866Z,15.11
2023-05-20T18:17:47.183Z,14.96
2023-05-20T18:20:17.768Z,14.99
2023-05-20T18:22:46.952Z,14.97
2023-05-20T18:25:17.133Z,14.96
2023-05-20T18:27:46.253Z,14.84
2023-05-20T18:30:15.466Z,14.80
2023-05-20T18:32:44.767Z,14.76
2023-05-20T18:35:13.920Z,14.78
2023-05-20T18:37:44.496Z,14.63
2023-05-20T18:40:14.339Z,14.53
2023-05-20T18:42:43.460Z,14.36
2023-05-20T18:45:13.105Z,14.30
2023-05-20T18:47:42.615Z,14.14
2023-05-20T18:50:12.556Z,13.95
2023-05-20T18:52:43.079Z,13.92
2023-05-20T18:55:12.222Z,13.86
2023-05-20T18:57:41.403Z,13.75
2023-05-20T19:00:12.370Z,13.63
2023-05-20T19:02:42.532Z,13.52
2023-05-20T19:05:13.170Z,13.49
2023-05-20T19:07:43.803Z,13.48
2023-05-20T19:10:13.010Z,13.42
2023-05-20T19:12:43.462Z,13.33
2023-05-20T19:15:12.907Z,13.27
2023-05-20T19:17:42.226Z,13.15
2023-05-20T19:20:12.080Z,13.12
2023-05-20T19:22:41.348Z,13.02
2023-05-20T19:25:12.459Z,12.97
2023-05-20T19:27:41.676Z,12.92
2023-05-20T19:30:11.468Z,12.91
2023-05-20T19:32:40.753Z,12.85
2023-05-20T19:35:10.678Z,12.86
2023-05-20T19:37:39.764Z,12.87
2023-05-20T19:40:11.704Z,12.87
2023-05-20T19:42:40.884Z,12.86
2023-05-20T19:45:11.302Z,12.86
2023-05-20T19:47:40.513Z,12.81
2023-05-20T19:50:10.379Z,12.77
2023-05-20T19:52:39.494Z,12.72
2023-05-20T19:55:09.648Z,12.83
2023-05-20T19:57:40.239Z,12.80
2023-05-20T20:00:11.388Z,12.70
2023-05-20T20:02:43.557Z,12.63
2023-05-20T20:05:12.820Z,12.59
2023-05-20T20:07:42.087Z,12.68
2023-05-20T20:10:11.863Z,12.60
2023-05-20T20:12:42.349Z,12.46
2023-05-20T20:15:12.322Z,12.59
2023-05-20T20:17:45.167Z,12.53
2023-05-20T20:20:14.913Z,12.47
2023-05-20T20:22:44.121Z,12.41
2023-05-20T20:25:14.432Z,12.41
2023-05-20T20:27:45.067Z,12.39
2023-05-20T20:30:15.480Z,12.37
2023-05-20T20:32:44.842Z,12.38
2023-05-20T20:35:14.377Z,12.35
2023-05-20T20:37:44.773Z,12.39
2023-05-20T20:40:14.130Z,12.38
2023-05-20T20:42:48.407Z,12.37
2023-05-20T20:45:17.881Z,12.36
2023-05-20T20:47:47.072Z,12.33
2023-05-20T20:50:16.588Z,12.34
2023-05-20T20:52:45.747Z,12.35
2023-05-20T20:55:14.876Z,12.34
2023-05-20T20:57:45.432Z,12.29
2023-05-20T21:00:20.623Z,12.21
2023-05-20T21:02:49.905Z,12.22
2023-05-20T21:05:19.157Z,12.25
2023-05-20T21:07:50.133Z,12.20
2023-05-20T21:10:19.498Z,12.10
2023-05-20T21:12:50.042Z,12.10
2023-05-20T21:15:19.635Z,12.15
2023-05-20T21:17:48.858Z,12.12
2023-05-20T21:20:21.325Z,12.11
2023-05-20T21:22:51.066Z,12.10
2023-05-20T21:25:20.281Z,12.11
2023-05-20T21:27:50.775Z,12.10
2023-05-20T21:30:20.052Z,12.08
2023-05-20T21:32:49.302Z,12.05
2023-05-20T21:35:18.615Z,12.02
2023-05-20T21:37:47.744Z,11.98
2023-05-20T21:40:17.068Z,11.97
2023-05-20T21:42:46.168Z,11.87
2023-05-20T21:45:17.348Z,11.94
2023-05-20T21:47:46.873Z,11.92
2023-05-20T21:50:16.117Z,11.96
2023-05-20T21:52:45.627Z,11.84
2023-05-20T21:55:14.969Z,11.89
2023-05-20T21:57:44.141Z,11.95
2023-05-20T22:00:18.625Z,11.90
2023-05-20T22:02:47.779Z,11.85
2023-05-20T22:05:17.259Z,11.90
2023-05-20T22:07:47.023Z,11.83
2023-05-20T22:10:17.538Z,11.88
2023-05-20T22:12:47.469Z,11.80
2023-05-20T22:15:17.984Z,11.83
2023-05-20T22:17:47.523Z,11.88
2023-05-20T22:20:16.825Z,11.87
2023-05-20T22:22:46.067Z,11.89
2023-05-20T22:25:15.488Z,11.88
2023-05-20T22:27:44.977Z,11.88
2023-05-20T22:30:14.642Z,11.91
2023-05-20T22:32:45.599Z,11.89
2023-05-20T22:35:14.742Z,11.92
2023-05-20T22:37:43.874Z,11.89
2023-05-20T22:40:13.479Z,11.94
2023-05-20T22:42:42.660Z,11.97
2023-05-20T22:45:12.319Z,11.90
2023-05-20T22:47:41.638Z,11.89
2023-05-20T22:50:13.422Z,11.90
2023-05-20T22:52:42.721Z,11.92
2023-05-20T22:55:12.578Z,11.91
2023-05-20T22:57:41.667Z,11.93
2023-05-20T23:00:14.498Z,11.91
2023-05-20T23:02:45.746Z,11.93
2023-05-20T23:05:16.525Z,11.92
2023-05-20T23:07:45.892Z,11.92
2023-05-20T23:10:15.027Z,11.89
2023-05-20T23:12:44.154Z,11.92
2023-05-20T23:15:13.465Z,11.91
2023-05-20T23:17:42.615Z,11.81
2023-05-20T23:20:14.423Z,11.79
2023-05-20T23:22:44.992Z,11.80
2023-05-20T23:25:15.292Z,11.80
2023-05-20T23:27:44.540Z,11.80
2023-05-20T23:30:13.871Z,11.77
2023-05-20T23:32:43.486Z,11.72
2023-05-20T23:35:13.221Z,11.72
2023-05-20T23:37:42.362Z,11.68
2023-05-20T23:40:13.631Z,11.59
2023-05-20T23:42:42.684Z,11.59
2023-05-20T23:45:13.050Z,11.62
2023-05-20T23:47:42.213Z,11.54
2023-05-20T23:50:13.229Z,11.53
2023-05-20T23:52:42.394Z,11.55
2023-05-20T23:55:14.292Z,11.59
2023-05-20T23:57:43.462Z,11.59
